createdAt,value
2022-09-23T00:01:26.500Z,9.13
2022-09-23T00:03:54.710Z,9.25
2022-09-23T00:06:24.691Z,8.98
2022-09-23T00:08:53.964Z,8.43
2022-09-23T00:11:27.633Z,8.23
2022-09-23T00:13:57.343Z,7.93
2022-09-23T00:16:28.400Z,8.05
2022-09-23T00:18:56.737Z,7.55
2022-09-23T00:21:25.065Z,6.63
2022-09-23T00:23:53.062Z,7.30
2022-09-23T00:26:23.189Z,7.05
2022-09-23T00:28:52.832Z,6.80
2022-09-23T00:31:24.465Z,6.22
2022-09-23T00:33:56.638Z,7.68
2022-09-23T00:36:25.349Z,7.88
2022-09-23T00:38:53.900Z,8.23
2022-09-23T00:41:22.212Z,7.65
2022-09-23T00:43:53.773Z,7.25
2022-09-23T00:46:24.846Z,7.57
2022-09-23T00:48:58.049Z,7.45
2022-09-23T00:51:32.115Z,7.50
2022-09-23T00:54:00.284Z,7.38
2022-09-23T00:56:28.287Z,7.90
2022-09-23T00:58:57.752Z,7.85
2022-09-23T01:01:26.764Z,8.27
2022-09-23T01:03:56.944Z,7.03
2022-09-23T01:06:26.205Z,7.85
2022-09-23T01:08:54.745Z,8.15
2022-09-23T01:11:37.168Z,9.00
2022-09-23T01:14:21.756Z,8.80
2022-09-23T01:16:56.330Z,9.50
2022-09-23T01:19:43.510Z,8.05
2022-09-23T01:22:20.486Z,9.00
2022-09-23T01:24:58.025Z,8.77
2022-09-23T01:27:55.962Z,8.93
2022-09-23T01:30:45.591Z,7.78
2022-09-23T01:33:24.207Z,8.27
2022-09-23T01:36:04.531Z,4.80
2022-09-23T01:38:39.577Z,7.00
2022-09-23T01:41:18.360Z,7.45
2022-09-23T01:43:54.478Z,6.78
2022-09-23T01:46:28.967Z,7.43
2022-09-23T01:49:03.440Z,7.10
2022-09-23T01:51:36.671Z,8.05
2022-09-23T01:54:10.977Z,7.93
2022-09-23T01:56:43.794Z,8.32
2022-09-23T01:59:16.374Z,8.40
2022-09-23T02:01:51.653Z,7.80
2022-09-23T02:04:24.850Z,8.18
2022-09-23T02:06:57.968Z,8.52
2022-09-23T02:09:30.528Z,8.73
2022-09-23T02:12:05.649Z,7.90
2022-09-23T02:14:37.523Z,7.80
2022-09-23T02:17:11.208Z,7.80
2022-09-23T02:19:46.156Z,7.93
2022-09-23T02:22:17.980Z,7.00
2022-09-23T02:24:46.139Z,7.95
2022-09-23T02:27:24.611Z,8.00
2022-09-23T02:29:58.086Z,7.72
2022-09-23T02:32:36.480Z,7.68
2022-09-23T02:35:15.852Z,8.18
2022-09-23T02:37:49.828Z,8.95
2022-09-23T02:40:23.472Z,7.90
2022-09-23T02:43:02.780Z,9.18
2022-09-23T02:45:31.110Z,8.35
2022-09-23T02:48:06.428Z,7.72
2022-09-23T02:50:35.480Z,7.47
2022-09-23T02:53:04.261Z,5.93
2022-09-23T02:55:32.410Z,6.10
2022-09-23T02:58:03.093Z,8.23
2022-09-23T03:00:44.022Z,8.63
2022-09-23T03:03:29.772Z,6.60
2022-09-23T03:05:59.818Z,7.43
2022-09-23T03:08:36.788Z,7.53
2022-09-23T03:11:08.854Z,7.75
2022-09-23T03:13:50.868Z,7.10
2022-09-23T03:16:31.238Z,7.22
2022-09-23T03:19:09.040Z,7.40
2022-09-23T03:21:42.376Z,7.20
2022-09-23T03:24:14.860Z,6.43
2022-09-23T03:26:47.409Z,7.85
2022-09-23T03:29:16.293Z,7.43
2022-09-23T03:31:45.605Z,6.68
2022-09-23T03:34:21.103Z,7.45
2022-09-23T03:36:56.096Z,7.55
2022-09-23T03:39:37.581Z,7.55
2022-09-23T03:42:16.675Z,7.30
2022-09-23T03:44:45.462Z,7.53
2022-09-23T03:47:14.616Z,5.50
2022-09-23T03:49:48.289Z,6.70
2022-09-23T03:52:16.878Z,7.85
2022-09-23T03:54:45.182Z,5.10
2022-09-23T03:57:14.284Z,7.47
2022-09-23T03:59:42.489Z,7.90
2022-09-23T04:02:11.794Z,7.75
2022-09-23T04:04:41.038Z,7.03
2022-09-23T04:07:10.956Z,7.13
2022-09-23T04:09:39.347Z,7.40
2022-09-23T04:12:07.855Z,7.25
2022-09-23T04:14:37.084Z,7.35
2022-09-23T04:17:05.215Z,7.20
2022-09-23T04:19:33.258Z,9.23
2022-09-23T04:22:01.948Z,7.70
2022-09-23T04:24:31.484Z,7.80
2022-09-23T04:29:27.416Z,7.75
2022-09-23T04:31:55.759Z,8.50
2022-09-23T04:36:52.708Z,7.47
2022-09-23T04:39:20.768Z,8.80
2022-09-23T04:41:50.112Z,8.07
2022-09-23T04:44:19.676Z,7.13
2022-09-23T04:49:16.556Z,7.43
2022-09-23T04:51:45.533Z,8.40
2022-09-23T04:54:14.816Z,7.35
2022-09-23T04:56:43.140Z,8.00
2022-09-23T04:59:12.442Z,9.00
2022-09-23T05:01:43.045Z,8.30
2022-09-23T05:04:13.854Z,7.45
2022-09-23T05:06:45.073Z,7.72
2022-09-23T05:09:16.044Z,7.88
2022-09-23T05:11:44.968Z,7.05
2022-09-23T05:14:14.387Z,6.18
2022-09-23T05:16:42.492Z,7.00
2022-09-23T05:19:13.388Z,7.75
2022-09-23T05:21:43.103Z,7.95
2022-09-23T05:24:13.126Z,8.07
2022-09-23T05:26:41.738Z,8.90
2022-09-23T05:29:10.002Z,8.20
2022-09-23T05:31:39.369Z,7.47
2022-09-23T05:34:07.760Z,8.27
2022-09-23T05:36:38.883Z,20.17
2022-09-23T05:39:09.179Z,31.63
2022-09-23T05:41:37.692Z,26.98
2022-09-23T05:44:05.924Z,13.15
2022-09-23T05:46:34.096Z,7.57
2022-09-23T05:49:04.370Z,7.00
2022-09-23T05:51:34.598Z,7.10
2022-09-23T05:54:03.956Z,8.05
2022-09-23T05:56:34.290Z,6.75
2022-09-23T05:59:03.709Z,7.68
2022-09-23T06:01:33.979Z,8.15
2022-09-23T06:04:05.490Z,7.20
2022-09-23T06:06:37.718Z,6.63
2022-09-23T06:09:06.915Z,6.68
2022-09-23T06:11:36.532Z,7.10
2022-09-23T06:16:34.811Z,6.55
2022-09-23T06:19:06.859Z,7.00
2022-09-23T06:21:36.572Z,6.97
2022-09-23T06:24:05.108Z,7.75
2022-09-23T06:26:34.823Z,7.13
2022-09-23T06:31:32.032Z,7.40
2022-09-23T06:34:09.882Z,7.43
2022-09-23T06:36:44.365Z,7.63
2022-09-23T06:39:14.242Z,8.13
2022-09-23T06:41:42.391Z,7.07
2022-09-23T06:44:10.487Z,7.68
2022-09-23T06:46:38.542Z,9.27
2022-09-23T06:49:06.534Z,9.10
2022-09-23T06:51:34.754Z,9.40
2022-09-23T06:54:06.578Z,8.95
2022-09-23T06:56:38.824Z,9.65
2022-09-23T06:59:08.245Z,8.80
2022-09-23T07:01:36.346Z,8.05
2022-09-23T07:04:04.687Z,8.20
2022-09-23T07:06:33.695Z,8.15
2022-09-23T07:09:03.270Z,7.10
2022-09-23T07:13:59.125Z,7.47
2022-09-23T07:16:27.250Z,7.72
2022-09-23T07:18:56.156Z,9.38
2022-09-23T07:21:25.955Z,7.35
2022-09-23T07:23:55.158Z,6.85
2022-09-23T07:26:24.856Z,6.50
2022-09-23T07:28:56.545Z,7.50
2022-09-23T07:31:36.930Z,8.05
2022-09-23T07:34:06.858Z,8.25
2022-09-23T07:36:37.170Z,8.65
2022-09-23T07:39:05.327Z,8.15
2022-09-23T07:41:35.982Z,7.25
2022-09-23T07:44:04.265Z,7.90
2022-09-23T07:46:34.701Z,8.20
2022-09-23T07:49:02.988Z,7.50
2022-09-23T07:51:35.949Z,7.30
2022-09-23T07:54:07.745Z,7.32
2022-09-23T07:56:38.487Z,6.43
2022-09-23T07:59:08.678Z,7.55
2022-09-23T08:01:39.578Z,6.82
2022-09-23T08:04:09.644Z,6.53
2022-09-23T08:06:41.985Z,7.25
2022-09-23T08:09:10.491Z,6.85
2022-09-23T08:11:41.972Z,7.22
2022-09-23T08:14:10.814Z,6.28
2022-09-23T08:16:39.769Z,6.60
2022-09-23T08:19:08.198Z,6.00
2022-09-23T08:21:37.624Z,6.10
2022-09-23T08:24:05.853Z,6.00
2022-09-23T08:26:34.380Z,6.10
2022-09-23T08:29:03.765Z,5.60
2022-09-23T08:31:31.873Z,5.72
2022-09-23T08:34:00.476Z,5.22
2022-09-23T08:36:28.641Z,4.77
2022-09-23T08:38:58.216Z,5.30
2022-09-23T08:41:35.055Z,4.90
2022-09-23T08:44:12.006Z,4.60
2022-09-23T08:46:46.933Z,5.03
2022-09-23T08:49:24.814Z,4.50
2022-09-23T08:51:55.369Z,3.97
2022-09-23T08:54:23.853Z,4.57
2022-09-23T08:56:53.214Z,3.93
2022-09-23T08:59:29.257Z,4.63
2022-09-23T09:02:01.232Z,3.53
2022-09-23T09:04:39.802Z,3.63
2022-09-23T09:10:11.543Z,3.00
2022-09-23T09:12:44.882Z,3.08
2022-09-23T09:15:16.780Z,2.90
2022-09-23T09:17:52.764Z,2.42
2022-09-23T09:20:25.853Z,2.58
2022-09-23T09:22:57.399Z,2.17
2022-09-23T09:25:37.586Z,2.47
2022-09-23T09:28:16.590Z,2.63
2022-09-23T09:30:49.867Z,2.10
2022-09-23T09:33:25.302Z,2.05
2022-09-23T09:36:17.503Z,2.10
2022-09-23T09:38:45.611Z,2.08
2022-09-23T09:41:17.777Z,2.10
2022-09-23T09:43:52.288Z,2.10
2022-09-23T09:46:47.864Z,2.30
2022-09-23T09:49:26.076Z,1.95
2022-09-23T09:52:14.167Z,2.03
2022-09-23T09:54:44.380Z,2.03
2022-09-23T09:57:21.174Z,2.20
2022-09-23T09:59:49.161Z,2.10
2022-09-23T10:02:27.881Z,2.03
2022-09-23T10:05:00.142Z,1.75
2022-09-23T10:07:30.868Z,1.70
2022-09-23T10:10:31.692Z,1.80
2022-09-23T10:13:15.681Z,1.83
2022-09-23T10:15:45.637Z,1.77
2022-09-23T10:18:20.669Z,1.80
2022-09-23T10:20:50.535Z,1.70
2022-09-23T10:23:22.365Z,1.70
2022-09-23T10:25:58.284Z,1.98
2022-09-23T10:28:48.821Z,1.50
2022-09-23T10:31:24.919Z,1.30
2022-09-23T10:33:57.278Z,1.40
2022-09-23T10:36:25.289Z,1.90
2022-09-23T10:39:17.084Z,1.60
2022-09-23T10:42:14.573Z,1.83
2022-09-23T10:45:14.463Z,1.88
2022-09-23T10:47:52.277Z,3.72
2022-09-23T10:50:38.523Z,2.42
2022-09-23T10:53:16.240Z,1.88
2022-09-23T10:55:57.549Z,2.08
2022-09-23T10:58:47.678Z,2.40
2022-09-23T11:01:27.278Z,4.22
2022-09-23T11:04:19.307Z,2.42
2022-09-23T11:07:02.190Z,2.00
2022-09-23T11:09:43.105Z,1.70
2022-09-23T11:12:21.950Z,1.65
2022-09-23T11:15:03.321Z,1.58
2022-09-23T11:17:50.678Z,1.60
2022-09-23T11:20:34.108Z,1.70
2022-09-23T11:23:38.474Z,1.73
2022-09-23T11:26:20.852Z,1.73
2022-09-23T11:29:22.463Z,1.75
2022-09-23T11:31:59.653Z,1.77
2022-09-23T11:34:51.055Z,1.80
2022-09-23T11:37:23.121Z,1.60
2022-09-23T11:39:57.373Z,1.60
2022-09-23T11:42:28.750Z,1.88
2022-09-23T11:45:02.211Z,1.80
2022-09-23T11:47:39.706Z,1.35
2022-09-23T11:50:18.758Z,1.60
2022-09-23T11:52:52.614Z,1.67
2022-09-23T11:55:25.666Z,1.50
2022-09-23T11:57:55.993Z,1.50
2022-09-23T12:00:28.918Z,1.58
2022-09-23T12:03:06.788Z,1.55
2022-09-23T12:05:40.372Z,1.63
2022-09-23T12:08:16.034Z,1.70
2022-09-23T12:10:52.920Z,1.30
2022-09-23T12:13:27.150Z,1.70
2022-09-23T12:16:09.862Z,1.60
2022-09-23T12:18:52.591Z,1.33
2022-09-23T12:21:53.052Z,1.20
2022-09-23T12:24:48.190Z,1.20
2022-09-23T12:27:29.541Z,1.08
2022-09-23T12:30:02.213Z,1.27
2022-09-23T12:32:30.821Z,1.50
2022-09-23T12:35:00.465Z,1.70
2022-09-23T12:37:34.287Z,1.52
2022-09-23T12:40:09.233Z,1.20
2022-09-23T12:42:45.917Z,1.40
2022-09-23T12:45:34.634Z,1.10
2022-09-23T12:48:04.191Z,1.20
2022-09-23T12:50:56.583Z,1.27
2022-09-23T12:53:59.665Z,1.13
2022-09-23T12:56:44.551Z,1.45
2022-09-23T12:59:25.692Z,1.63
2022-09-23T13:01:54.364Z,1.55
2022-09-23T13:04:52.194Z,1.52
2022-09-23T13:07:25.766Z,1.50
2022-09-23T13:09:57.450Z,1.40
2022-09-23T13:12:29.068Z,1.40
2022-09-23T13:15:03.440Z,1.40
2022-09-23T13:17:38.160Z,1.58
2022-09-23T13:20:29.063Z,2.70
2022-09-23T13:23:20.110Z,1.48
2022-09-23T13:25:48.488Z,1.52
2022-09-23T13:28:37.918Z,1.38
2022-09-23T13:31:13.966Z,1.15
2022-09-23T13:33:45.905Z,1.60
2022-09-23T13:36:15.716Z,1.27
2022-09-23T13:38:46.001Z,1.63
2022-09-23T13:41:16.402Z,1.35
2022-09-23T13:43:46.792Z,1.20
2022-09-23T13:46:22.100Z,1.52
2022-09-23T13:48:54.553Z,1.27
2022-09-23T13:51:25.038Z,1.55
2022-09-23T13:53:55.365Z,33.60
2022-09-23T13:56:26.385Z,1.75
2022-09-23T13:58:56.632Z,2.42
2022-09-23T14:01:33.903Z,2.17
2022-09-23T14:04:02.631Z,1.58
2022-09-23T14:06:31.765Z,1.30
2022-09-23T14:09:02.560Z,1.20
2022-09-23T14:14:07.099Z,1.40
2022-09-23T14:16:40.744Z,1.50
2022-09-23T14:19:14.121Z,1.52
2022-09-23T14:21:42.101Z,1.30
2022-09-23T14:24:16.042Z,1.20
2022-09-23T14:26:47.299Z,1.75
2022-09-23T14:29:18.041Z,1.30
2022-09-23T14:31:56.919Z,1.02
2022-09-23T14:37:42.222Z,1.20
2022-09-23T14:40:14.850Z,1.30
2022-09-23T14:42:46.317Z,1.33
2022-09-23T14:45:17.776Z,1.73
2022-09-23T14:47:50.514Z,1.55
2022-09-23T14:50:40.660Z,1.67
2022-09-23T14:53:34.740Z,1.33
2022-09-23T14:56:22.757Z,1.58
2022-09-23T14:58:54.297Z,1.40
2022-09-23T15:01:39.722Z,1.65
2022-09-23T15:04:15.529Z,1.48
2022-09-23T15:06:50.450Z,1.60
2022-09-23T15:09:24.675Z,1.58
2022-09-23T15:11:54.605Z,1.35
2022-09-23T15:14:39.612Z,1.60
2022-09-23T15:17:18.369Z,1.80
2022-09-23T15:19:52.731Z,1.90
2022-09-23T15:22:20.897Z,2.13
2022-09-23T15:24:49.024Z,1.75
2022-09-23T15:27:33.100Z,1.67
2022-09-23T15:30:15.924Z,1.83
2022-09-23T15:32:44.418Z,1.63
2022-09-23T15:35:18.587Z,1.70
2022-09-23T15:37:48.722Z,1.92
2022-09-23T15:40:22.678Z,2.13
2022-09-23T15:42:56.090Z,2.47
2022-09-23T15:45:31.137Z,2.65
2022-09-23T15:48:03.296Z,3.72
2022-09-23T15:50:35.358Z,2.58
2022-09-23T15:53:03.378Z,2.20
2022-09-23T15:55:31.966Z,2.40
2022-09-23T15:58:00.346Z,1.87
2022-09-23T16:00:28.480Z,2.53
2022-09-23T16:02:56.461Z,2.15
2022-09-23T16:05:30.662Z,2.25
2022-09-23T16:08:02.803Z,1.88
2022-09-23T16:10:34.953Z,1.42
2022-09-23T16:13:05.222Z,2.50
2022-09-23T16:15:33.900Z,2.10
2022-09-23T16:18:02.230Z,1.50
2022-09-23T16:20:31.178Z,1.75
2022-09-23T16:23:02.044Z,1.42
2022-09-23T16:25:35.792Z,1.90
2022-09-23T16:28:04.779Z,1.80
2022-09-23T16:30:34.619Z,1.85
2022-09-23T16:33:02.574Z,2.00
2022-09-23T16:35:34.539Z,1.80
2022-09-23T16:38:04.181Z,1.70
2022-09-23T16:40:32.597Z,3.65
2022-09-23T16:43:02.139Z,3.28
2022-09-23T16:47:59.415Z,2.70
2022-09-23T16:50:28.975Z,6.05
2022-09-23T16:55:27.065Z,5.30
2022-09-23T16:57:55.898Z,6.03
2022-09-23T17:00:41.972Z,6.65
2022-09-23T17:03:30.722Z,4.05
2022-09-23T17:06:01.490Z,3.60
2022-09-23T17:08:32.642Z,2.92
2022-09-23T17:11:03.040Z,2.88
2022-09-23T17:15:59.517Z,2.90
2022-09-23T17:18:27.997Z,3.00
2022-09-23T17:21:00.692Z,3.47
2022-09-23T17:23:29.593Z,3.67
2022-09-23T17:25:59.335Z,3.83
2022-09-23T17:28:29.018Z,4.45
2022-09-23T17:30:58.995Z,5.05
2022-09-23T17:33:28.062Z,5.35
2022-09-23T17:35:56.799Z,4.85
2022-09-23T17:38:29.412Z,12.20
2022-09-23T17:41:01.033Z,13.82
2022-09-23T17:43:31.460Z,5.35
2022-09-23T17:46:05.171Z,5.22
2022-09-23T17:48:34.805Z,5.30
2022-09-23T17:51:04.338Z,4.57
2022-09-23T17:56:04.097Z,3.60
2022-09-23T17:58:35.493Z,4.20
2022-09-23T18:01:04.270Z,3.92
2022-09-23T18:03:33.233Z,4.88
2022-09-23T18:06:09.781Z,13.05
2022-09-23T18:08:38.292Z,14.95
2022-09-23T18:11:14.212Z,9.20
2022-09-23T18:13:47.505Z,6.97
2022-09-23T18:16:18.088Z,4.95
2022-09-23T18:18:51.334Z,4.28
2022-09-23T18:21:20.108Z,3.40
2022-09-23T18:23:48.486Z,3.60
2022-09-23T18:26:17.148Z,4.22
2022-09-23T18:28:47.884Z,8.27
2022-09-23T18:31:17.060Z,9.95
2022-09-23T18:33:49.301Z,7.80
2022-09-23T18:36:17.303Z,6.55
2022-09-23T18:38:45.800Z,5.45
2022-09-23T18:41:14.153Z,6.95
2022-09-23T18:43:47.619Z,6.32
2022-09-23T18:46:19.611Z,6.95
2022-09-23T18:49:05.888Z,6.88
2022-09-23T18:51:36.472Z,7.05
2022-09-23T18:54:06.666Z,5.72
2022-09-23T18:56:40.928Z,5.05
2022-09-23T18:59:12.108Z,3.92
2022-09-23T19:01:41.684Z,5.00
2022-09-23T19:04:09.833Z,5.47
2022-09-23T19:06:37.829Z,6.60
2022-09-23T19:09:07.292Z,6.53
2022-09-23T19:11:36.542Z,6.50
2022-09-23T19:14:06.660Z,7.00
2022-09-23T19:16:35.733Z,34.25
2022-09-23T19:19:06.521Z,55.28
2022-09-23T19:21:34.821Z,41.13
2022-09-23T19:24:06.095Z,28.08
2022-09-23T19:26:36.664Z,19.90
2022-09-23T19:29:07.981Z,11.65
2022-09-23T19:31:38.592Z,9.38
2022-09-23T19:34:10.534Z,7.43
2022-09-23T19:36:42.110Z,7.30
2022-09-23T19:39:16.876Z,6.60
2022-09-23T19:41:45.134Z,12.25
2022-09-23T19:44:13.165Z,12.18
2022-09-23T19:46:45.083Z,11.02
2022-09-23T19:49:15.111Z,9.18
2022-09-23T19:51:44.146Z,10.23
2022-09-23T19:54:12.941Z,8.50
2022-09-23T19:56:42.704Z,11.23
2022-09-23T19:59:13.206Z,11.45
2022-09-23T20:01:43.267Z,13.40
2022-09-23T20:04:11.596Z,11.38
2022-09-23T20:06:40.955Z,10.00
2022-09-23T20:09:09.010Z,7.30
2022-09-23T20:11:37.018Z,6.95
2022-09-23T20:14:06.287Z,6.93
2022-09-23T20:19:04.316Z,5.30
2022-09-23T20:21:33.442Z,5.68
2022-09-23T20:24:04.425Z,7.05
2022-09-23T20:26:49.701Z,7.40
2022-09-23T20:29:17.736Z,6.78
2022-09-23T20:31:45.812Z,8.32
2022-09-23T20:34:14.039Z,7.70
2022-09-23T20:36:42.496Z,8.18
2022-09-23T20:39:11.859Z,7.28
2022-09-23T20:41:40.118Z,7.07
2022-09-23T20:44:12.301Z,5.82
2022-09-23T20:46:45.297Z,6.50
2022-09-23T20:49:16.683Z,5.47
2022-09-23T20:51:44.788Z,5.80
2022-09-23T20:54:14.123Z,6.72
2022-09-23T20:56:42.133Z,7.45
2022-09-23T20:59:11.245Z,6.78
2022-09-23T21:01:40.769Z,6.45
2022-09-23T21:04:09.730Z,5.85
2022-09-23T21:06:39.101Z,6.30
2022-09-23T21:09:08.004Z,6.88
2022-09-23T21:11:38.107Z,7.28
2022-09-23T21:14:06.177Z,6.68
2022-09-23T21:16:34.235Z,6.72
2022-09-23T21:19:02.904Z,7.93
2022-09-23T21:21:30.964Z,7.57
2022-09-23T21:24:24.521Z,9.68
2022-09-23T21:29:18.984Z,8.65
2022-09-23T21:31:49.537Z,8.68
2022-09-23T21:34:17.811Z,6.85
2022-09-23T21:36:46.141Z,6.90
2022-09-23T21:39:14.481Z,6.70
2022-09-23T21:44:12.828Z,7.25
2022-09-23T21:46:42.700Z,7.82
2022-09-23T21:49:10.720Z,8.13
2022-09-23T21:51:41.441Z,7.72
2022-09-23T21:54:13.923Z,7.55
2022-09-23T21:56:42.134Z,8.50
2022-09-23T21:59:10.342Z,9.00
2022-09-23T22:01:41.949Z,8.68
2022-09-23T22:04:15.334Z,9.88
2022-09-23T22:06:43.663Z,10.23
2022-09-23T22:09:14.324Z,10.27
2022-09-23T22:12:08.612Z,9.38
2022-09-23T22:14:36.986Z,9.35
2022-09-23T22:17:10.852Z,9.75
2022-09-23T22:19:45.966Z,10.77
2022-09-23T22:22:17.536Z,10.63
2022-09-23T22:24:47.016Z,10.45
2022-09-23T22:27:18.415Z,11.15
2022-09-23T22:30:03.892Z,10.23
2022-09-23T22:32:42.046Z,10.30
2022-09-23T22:35:11.516Z,8.77
2022-09-23T22:37:40.280Z,8.13
2022-09-23T22:40:10.466Z,7.60
2022-09-23T22:42:41.479Z,6.85
2022-09-23T22:45:11.331Z,7.03
2022-09-23T22:47:44.978Z,6.55
2022-09-23T22:50:14.955Z,7.07
2022-09-23T22:52:43.051Z,6.82
2022-09-23T22:55:11.348Z,7.07
2022-09-23T22:57:39.327Z,7.35
2022-09-23T23:00:09.328Z,6.85
2022-09-23T23:02:37.287Z,6.95
2022-09-23T23:05:08.400Z,6.07
2022-09-23T23:07:36.546Z,6.28
2022-09-23T23:10:07.185Z,6.63
2022-09-23T23:12:35.172Z,6.63
2022-09-23T23:15:03.169Z,6.95
2022-09-23T23:17:31.118Z,7.05
2022-09-23T23:19:59.082Z,7.38
2022-09-23T23:22:29.436Z,6.82
2022-09-23T23:24:57.563Z,7.10
2022-09-23T23:27:25.666Z,6.85
2022-09-23T23:29:54.046Z,7.40
2022-09-23T23:32:21.956Z,6.63
2022-09-23T23:34:49.900Z,7.53
2022-09-23T23:37:20.952Z,7.85
2022-09-23T23:39:51.194Z,8.05
2022-09-23T23:42:19.117Z,7.38
2022-09-23T23:44:47.238Z,7.30
2022-09-23T23:47:15.372Z,6.93
2022-09-23T23:49:43.300Z,7.78
2022-09-23T23:52:12.253Z,8.32
2022-09-23T23:54:40.187Z,7.95
2022-09-23T23:57:09.534Z,7.95
2022-09-23T23:59:37.604Z,8.05
